Pagrindinis puslapis
METAR-TAF:

METAR-TAF

Oro uostai :

Elim, Aliaska, Jungtinės Amerikos Valstijos

platuma: 64-36-54N, ilguma: 162-16-14W, Aukštis: 49 m

Dabartinis oras

Ataskaita buvo paskelbta 52 minutes, ne 22:56 UTC
Vėjas 4 kt iš Pietų/Pietvakarių
Temperatūra 10°C
Drėgmė 87%
Slėgis 1017 hPa
Matomumas: 16.1 km
Apsiniaukę ne aukštis 3900 ft

METAR: PFEL 052256Z AUTO 20004KT 10SM OVC039 10/08 A3002 RMK AO2 SLP168 T01000078

Laikas: 15:48 (23:48 UTC)


TAF: trūkstamas

Orai ataskaitas ir orų prognozės (METAR, TAF).

turimą stotys yra geltonos ir raudonos taškus žemėlapyje.

Perkelti pele per norėdami pamatyti stoties vardą.

Tada spustelėkite, norėdami matyti oro stebėjimo ir prognozės.

Norėdami pakeisti žemėlapį: spustelėkite ant žalios mygtukų su juodo kryžiaus žemyn,; žalią mygtuką su brūkšneliu, jei norite nutolinti; arba žalių rodyklių gretimoms žemėlapius.


METAR-TAF: